Latest Weather Observations for Maria Island

IDT60901

Issued at 9:21 pm EST Monday 27 June 2016 (issued every 10 minutes, with the page automatically refreshed every 10 minutes)

About weather observations | Map of Hobart area stations | Latest observations for Hobart area | Other Formats
Station Details ID: 092124 Name: MARIA ISLAND (POINT LESUEUR) Lat: -42.66 Lon: 148.02 Height: 28.0 m
Data from the previous 72 hours. | See also: Recent months at Maria Island
Date/Time
EST
Temp
°C
App
Temp
°C
Dew
Point
°C
Rel
Hum
%
Delta-T
°C
Wind Press
QNH
hPa
Press
MSL
hPa
Rain since
9am
mm
Dir  Spd
km/h
Gust
km/h
Spd
kts
Gust
kts
27/09:00pm 9.6 - - - - NNW 20 24 11 13 1012.2 1012.2 0.0
27/08:30pm 9.8 - - - - NW 22 30 12 16 1011.9 1011.9 0.0
27/08:00pm 10.2 - - - - NW 24 33 13 18 1011.9 1011.9 0.0
27/07:30pm 10.1 - - - - NNW 22 28 12 15 1012.0 1012.0 0.0
27/07:00pm 10.0 - - - - NNW 20 26 11 14 1012.0 1012.0 0.0
27/06:30pm 10.5 - - - - NW 24 28 13 15 1011.5 1011.5 0.0
27/06:00pm 10.5 - - - - NW 19 24 10 13 1011.3 1011.3 0.0
27/05:30pm 10.7 - - - - NNW 19 20 10 11 1011.2 1011.2 0.0
27/05:00pm 10.9 - - - - WNW 17 22 9 12 1011.0 1011.0 0.0
27/04:30pm 11.4 - - - - NW 13 19 7 10 1010.7 1010.7 0.0
27/04:00pm 11.8 - - - - WNW 13 17 7 9 1010.6 1010.6 0.0
27/03:30pm 12.2 - - - - NW 15 24 8 13 1010.4 1010.4 0.0
27/03:00pm 12.2 - - - - WNW 17 20 9 11 1010.4 1010.4 0.0
27/02:30pm 12.4 - - - - NW 9 11 5 6 1010.2 1010.2 0.0
27/02:00pm 12.6 - - - - WNW 17 22 9 12 1010.2 1010.2 0.0
27/01:30pm 12.2 - - - - NW 15 19 8 10 1010.4 1010.4 0.0
27/01:00pm 12.2 - - - - WNW 20 26 11 14 1010.3 1010.3 0.0
27/12:30pm 12.1 - - - - NW 13 15 7 8 1010.7 1010.7 0.0
27/12:00pm 11.8 - - - - NW 17 22 9 12 1010.9 1010.9 0.0
27/11:30am 11.6 - - - - WNW 13 19 7 10 1011.2 1011.2 0.0
27/11:00am 11.2 - - - - WNW 15 20 8 11 1011.5 1011.5 0.0
27/10:30am 10.8 - - - - N 7 11 4 6 1011.8 1011.8 0.0
27/10:00am 10.1 - - - - N 9 11 5 6 1011.6 1011.6 0.0
27/09:30am 9.2 - - - - WNW 9 13 5 7 1011.6 1011.6 0.0
27/09:00am 9.5 - - - - NW 9 15 5 8 1011.6 1011.6 0.0
27/08:30am 8.8 - - - - WNW 6 17 3 9 1011.4 1011.4 0.0
27/08:00am 8.8 - - - - NNW 9 13 5 7 1011.0 1011.0 0.0
27/07:30am 8.3 - - - - WNW 17 20 9 11 1010.7 1010.7 0.0
27/07:00am 8.4 - - - - WNW 13 15 7 8 1010.3 1010.3 0.0
27/06:30am 8.5 - - - - WNW 15 17 8 9 1010.1 1010.1 0.0
27/06:00am 8.7 - - - - WNW 17 19 9 10 1009.7 1009.7 0.0
27/05:30am 8.5 - - - - NW 13 15 7 8 1009.3 1009.3 0.0
27/05:00am 8.7 - - - - NNW 11 13 6 7 1009.1 1009.1 0.0
27/04:30am 9.4 - - - - NW 6 7 3 4 1009.1 1009.1 0.0
27/04:00am 9.6 - - - - N 13 17 7 9 1009.1 1009.1 0.0
27/03:30am 9.3 - - - - NW 11 19 6 10 1009.2 1009.2 0.0
27/03:00am 9.3 - - - - N 19 22 10 12 1009.1 1009.1 0.0
27/02:30am 9.5 - - - - NNW 11 17 6 9 1009.2 1009.2 0.0
27/02:00am 9.4 - - - - NW 28 33 15 18 1008.9 1008.9 0.0
27/01:30am 9.5 - - - - NW 37 44 20 24 1008.0 1008.0 0.0
27/01:00am 9.5 - - - - NW 28 33 15 18 1008.6 1008.6 0.0
27/12:30am 9.6 - - - - NW 20 30 11 16 1008.7 1008.7 0.0
27/12:00am 9.6 - - - - NW 13 17 7 9 1008.9 1008.9 0.0
 
Date/Time
EST
Temp
°C
App
Temp
°C
Dew
Point
°C
Rel
Hum
%
Delta-T
°C
Wind Press
QNH
hPa
Press
MSL
hPa
Rain since
9am
mm
Dir  Spd
km/h
Gust
km/h
Spd
kts
Gust
kts
26/11:30pm 9.7 - - - - NW 19 22 10 12 1009.0 1009.0 0.0
26/11:00pm 9.7 - - - - NNW 20 24 11 13 1009.1 1009.1 0.0
26/10:30pm 9.8 - - - - NNW 22 24 12 13 1009.1 1009.1 0.0
26/10:00pm 9.8 - - - - NW 19 22 10 12 1009.4 1009.4 0.0
26/09:30pm 9.9 - - - - NNW 17 20 9 11 1009.5 1009.5 0.0
26/09:00pm 10.0 - - - - NNW 11 15 6 8 1009.8 1009.8 0.0
26/08:30pm 10.1 - - - - NNW 19 20 10 11 1010.1 1010.1 0.0
26/08:00pm 10.3 - - - - NNW 20 24 11 13 1010.4 1010.4 0.0
26/07:30pm 10.2 - - - - NNW 22 28 12 15 1010.3 1010.3 0.0
26/07:00pm 10.2 - - - - NNW 20 22 11 12 1010.4 1010.4 0.0
26/06:30pm 10.3 - - - - NNW 17 20 9 11 1010.3 1010.3 0.0
26/06:00pm 9.9 - - - - NW 11 15 6 8 1010.5 1010.5 0.0
26/05:30pm 10.1 - - - - NW 19 20 10 11 1010.4 1010.4 0.0
26/05:00pm 10.0 - - - - WNW 15 19 8 10 1010.5 1010.5 0.0
26/04:30pm 10.2 - - - - NW 15 17 8 9 1010.4 1010.4 0.0
26/04:00pm 10.5 - - - - NW 9 11 5 6 1010.7 1010.7 0.0
26/03:30pm 11.3 - - - - WNW 9 13 5 7 1010.9 1010.9 0.0
26/03:00pm 11.6 - - - - NNW 20 24 11 13 1010.9 1010.9 0.0
26/02:30pm 11.9 - - - - NNW 20 24 11 13 1011.1 1011.1 0.0
26/02:00pm 11.6 - - - - NNW 20 24 11 13 1011.0 1011.0 0.0
26/01:30pm 11.2 - - - - NNW 19 22 10 12 1011.4 1011.4 0.0
26/01:00pm 10.3 - - - - N 26 28 14 15 1011.9 1011.9 0.0
26/12:30pm 10.1 - - - - N 28 32 15 17 1012.3 1012.3 0.0
26/12:00pm 9.8 - - - - N 26 30 14 16 1012.8 1012.8 0.0
26/11:30am 10.5 - - - - N 26 32 14 17 1013.2 1013.2 0.0
26/11:00am 10.9 - - - - N 22 30 12 16 1014.0 1014.0 0.0
26/10:30am 11.0 - - - - N 19 24 10 13 1014.4 1014.4 0.0
26/10:00am 10.4 - - - - NNW 11 15 6 8 1014.7 1014.7 0.0
26/09:30am 9.9 - - - - NNW 17 20 9 11 1014.6 1014.6 0.0
26/09:00am 9.9 - - - - NNW 15 19 8 10 1014.8 1014.8 0.0
26/08:30am 10.0 - - - - NNW 11 17 6 9 1014.9 1014.9 0.0
26/08:00am 8.9 - - - - NNW 13 17 7 9 1014.8 1014.8 0.0
26/07:30am 9.2 - - - - NNW 15 19 8 10 1014.9 1014.9 0.0
26/07:00am 9.3 - - - - NNW 11 19 6 10 1014.9 1014.9 0.0
26/06:30am 8.6 - - - - N 15 17 8 9 1014.8 1014.8 0.0
26/06:00am 8.6 - - - - NNW 17 20 9 11 1014.6 1014.6 0.0
26/05:30am 8.1 - - - - NNW 13 15 7 8 1014.4 1014.4 0.0
26/05:00am 8.0 - - - - NNW 20 24 11 13 1014.4 1014.4 0.0
26/04:30am 8.1 - - - - NNW 17 20 9 11 1014.3 1014.3 0.0
26/04:00am 8.4 - - - - NW 13 17 7 9 1014.4 1014.4 0.0
26/03:30am 8.4 - - - - WNW 20 24 11 13 1014.6 1014.6 0.0
26/03:00am 8.7 - - - - WNW 17 22 9 12 1014.8 1014.8 0.0
26/02:30am 8.3 - - - - WNW 19 22 10 12 1014.8 1014.8 0.0
26/02:00am 8.8 - - - - WNW 13 19 7 10 1015.0 1015.0 0.0
26/01:30am 8.6 - - - - WNW 17 20 9 11 1015.0 1015.0 0.0
26/01:00am 8.7 - - - - WNW 20 24 11 13 1015.1 1015.1 0.0
26/12:30am 8.4 - - - - WNW 17 20 9 11 1015.2 1015.2 0.0
26/12:00am 8.2 - - - - W 13 15 7 8 1015.4 1015.4 0.0
 
Date/Time
EST
Temp
°C
App
Temp
°C
Dew
Point
°C
Rel
Hum
%
Delta-T
°C
Wind Press
QNH
hPa
Press
MSL
hPa
Rain since
9am
mm
Dir  Spd
km/h
Gust
km/h
Spd
kts
Gust
kts
25/11:30pm 7.9 - - - - WNW 6 9 3 5 1015.7 1015.7 0.0
25/11:00pm 8.3 - - - - W 11 15 6 8 1015.7 1015.7 0.0
25/10:30pm 8.1 - - - - W 7 9 4 5 1016.0 1016.0 0.0
25/10:00pm 8.7 - - - - WNW 7 17 4 9 1016.2 1016.2 0.0
25/09:30pm 8.1 - - - - WNW 13 17 7 9 1016.2 1016.2 0.0
25/09:00pm 8.4 - - - - WNW 15 17 8 9 1016.3 1016.3 0.0
25/08:30pm 8.2 - - - - WNW 9 13 5 7 1016.4 1016.4 0.0
25/08:00pm 8.5 - - - - WNW 9 11 5 6 1016.6 1016.6 0.0
25/07:30pm 9.4 - - - - NNW 11 15 6 8 1016.6 1016.6 0.0
25/07:00pm 9.2 - - - - N 15 17 8 9 1016.5 1016.5 0.0
25/06:30pm 8.7 - - - - N 11 13 6 7 1016.4 1016.4 0.0
25/06:00pm 8.7 - - - - W 11 13 6 7 1016.2 1016.2 0.0
25/05:30pm 9.0 - - - - W 13 15 7 8 1016.1 1016.1 0.0
25/05:00pm 9.1 - - - - W 7 15 4 8 1016.1 1016.1 0.0
25/04:30pm 9.3 - - - - NW 9 13 5 7 1016.0 1016.0 0.0
25/04:00pm 9.9 - - - - WSW 9 13 5 7 1015.9 1015.9 0.0
25/03:30pm 10.2 - - - - WSW 22 28 12 15 1015.8 1015.8 0.0
25/03:00pm 10.3 - - - - WSW 24 28 13 15 1015.7 1015.7 0.0
25/02:30pm 10.2 - - - - WSW 30 37 16 20 1015.5 1015.5 0.0
25/02:00pm 10.0 - - - - WSW 32 39 17 21 1015.5 1015.5 0.0
25/01:30pm 9.7 - - - - WSW 26 35 14 19 1015.8 1015.8 0.0
25/01:00pm 9.6 - - - - WSW 26 39 14 21 1015.9 1015.9 0.0
25/12:30pm 9.4 - - - - SW 28 37 15 20 1015.9 1015.9 0.0
25/12:00pm 9.4 - - - - SW 24 33 13 18 1016.1 1016.1 0.0
25/11:30am 9.1 - - - - WSW 26 37 14 20 1016.3 1016.3 0.0
25/11:00am 8.7 - - - - WSW 22 33 12 18 1016.4 1016.4 0.0
25/10:30am 8.2 - - - - WSW 24 30 13 16 1016.6 1016.6 0.0
25/10:00am 7.9 - - - - WSW 26 32 14 17 1016.6 1016.6 0.0
25/09:30am 7.6 - - - - SW 28 41 15 22 1016.2 1016.2 0.0
25/09:00am 7.1 - - - - SW 28 37 15 20 1015.9 1015.9 0.0
25/08:30am 7.0 - - - - SW 26 32 14 17 1015.4 1015.4 0.0
25/08:00am 6.9 - - - - SW 33 43 18 23 1015.1 1015.1 0.0
25/07:41am 6.8 - - - - WSW 30 44 16 24 1014.9 1014.9 0.0
25/07:30am 6.0 - - - - WSW 13 19 7 10 1015.0 1015.0 0.0
25/07:00am 5.9 - - - - WSW 11 19 6 10 1014.9 1014.9 0.0
25/06:30am 5.7 - - - - WSW 15 20 8 11 1014.4 1014.4 0.0
25/06:00am 5.2 - - - - WNW 7 13 4 7 1014.2 1014.2 0.0
25/05:30am 5.6 - - - - W 11 15 6 8 1013.7 1013.7 0.0
25/05:00am 5.7 - - - - W 15 19 8 10 1013.3 1013.3 0.0
25/04:30am 5.8 - - - - WSW 19 26 10 14 1012.9 1012.9 0.0
25/04:00am 6.1 - - - - WSW 22 28 12 15 1012.7 1012.7 0.0
25/03:30am 6.3 - - - - WSW 24 32 13 17 1012.5 1012.5 0.0
25/03:00am 5.9 - - - - W 20 24 11 13 1012.2 1012.2 0.0
25/02:30am 5.6 - - - - W 19 24 10 13 1011.9 1011.9 0.0
25/02:00am 6.1 - - - - W 24 28 13 15 1011.3 1011.3 0.0
25/01:30am 5.6 - - - - W 22 28 12 15 1010.9 1010.9 0.0
25/01:00am 6.3 - - - - WSW 28 39 15 21 1010.5 1010.5 0.0
25/12:30am 6.3 - - - - WSW 22 30 12 16 1010.3 1010.3 0.0
25/12:00am 6.2 - - - - WSW 22 28 12 15 1010.1 1010.1 0.0
 
Date/Time
EST
Temp
°C
App
Temp
°C
Dew
Point
°C
Rel
Hum
%
Delta-T
°C
Wind Press
QNH
hPa
Press
MSL
hPa
Rain since
9am
mm
Dir  Spd
km/h
Gust
km/h
Spd
kts
Gust
kts
24/11:30pm 6.4 - - - - WSW 30 35 16 19 1009.4 1009.4 0.0
24/11:00pm 6.8 - - - - SW 28 33 15 18 1009.2 1009.2 0.0
24/10:30pm 6.6 - - - - SW 44 56 24 30 1008.6 1008.6 0.0
24/10:00pm 6.6 - - - - SW 39 50 21 27 1008.2 1008.2 0.0
24/09:30pm 6.5 - - - - SW 32 39 17 21 1008.2 1008.2 0.0

Latest Capital City Observations: Canberra | Sydney | Melbourne | Brisbane | Adelaide | Perth | Hobart | Darwin

Other Formats:

Comma delimited format used in spreadsheet applications
http://www.bom.gov.au/fwo/IDT60901/IDT60901.95988.axf

JavaScript Object Notation format (JSON) in row-major order
http://www.bom.gov.au/fwo/IDT60901/IDT60901.95988.json